sensor_id;sensor_type;location;lat;lon;timestamp;temperature;humidity
13251;DHT22;6692;50.710;7.180;2023-01-19T00:00:13;2.30;99.90
13251;DHT22;6692;50.710;7.180;2023-01-19T00:02:14;2.30;99.90
13251;DHT22;6692;50.710;7.180;2023-01-19T00:04:16;2.30;99.90
13251;DHT22;6692;50.710;7.180;2023-01-19T00:06:17;2.30;99.90
13251;DHT22;6692;50.710;7.180;2023-01-19T00:08:18;2.30;99.90
13251;DHT22;6692;50.710;7.180;2023-01-19T00:10:19;2.30;99.90
13251;DHT22;6692;50.710;7.180;2023-01-19T00:12:20;2.30;99.90
13251;DHT22;6692;50.710;7.180;2023-01-19T00:14:21;2.30;99.90
13251;DHT22;6692;50.710;7.180;2023-01-19T00:16:22;2.30;99.90
13251;DHT22;6692;50.710;7.180;2023-01-19T00:18:23;2.30;99.90
13251;DHT22;6692;50.710;7.180;2023-01-19T00:20:23;2.30;99.90
13251;DHT22;6692;50.710;7.180;2023-01-19T00:22:24;2.30;99.90
13251;DHT22;6692;50.710;7.180;2023-01-19T00:24:25;2.40;99.90
13251;DHT22;6692;50.710;7.180;2023-01-19T00:26:26;2.40;99.90
13251;DHT22;6692;50.710;7.180;2023-01-19T00:28:26;2.50;99.90
13251;DHT22;6692;50.710;7.180;2023-01-19T00:30:28;2.60;99.90
13251;DHT22;6692;50.710;7.180;2023-01-19T00:32:28;2.50;99.90
13251;DHT22;6692;50.710;7.180;2023-01-19T00:34:30;2.60;99.90
13251;DHT22;6692;50.710;7.180;2023-01-19T00:36:31;2.60;99.90
13251;DHT22;6692;50.710;7.180;2023-01-19T00:38:31;2.50;99.90
13251;DHT22;6692;50.710;7.180;2023-01-19T00:40:32;2.50;99.90
13251;DHT22;6692;50.710;7.180;2023-01-19T00:42:32;2.40;99.90
13251;DHT22;6692;50.710;7.180;2023-01-19T00:44:39;2.40;99.90
13251;DHT22;6692;50.710;7.180;2023-01-19T00:46:40;2.30;99.90
13251;DHT22;6692;50.710;7.180;2023-01-19T00:48:40;2.20;99.90
13251;DHT22;6692;50.710;7.180;2023-01-19T00:50:41;2.20;99.90
13251;DHT22;6692;50.710;7.180;2023-01-19T00:52:43;2.10;99.90
13251;DHT22;6692;50.710;7.180;2023-01-19T00:54:43;2.10;99.90
13251;DHT22;6692;50.710;7.180;2023-01-19T00:56:44;2.00;99.90
13251;DHT22;6692;50.710;7.180;2023-01-19T00:58:45;2.00;99.90
13251;DHT22;6692;50.710;7.180;2023-01-19T01:00:46;2.00;99.90
13251;DHT22;6692;50.710;7.180;2023-01-19T01:02:47;2.00;99.90
13251;DHT22;6692;50.710;7.180;2023-01-19T01:04:47;2.00;99.90
13251;DHT22;6692;50.710;7.180;2023-01-19T01:06:48;2.00;99.90
13251;DHT22;6692;50.710;7.180;2023-01-19T01:08:49;2.00;99.90
13251;DHT22;6692;50.710;7.180;2023-01-19T01:10:50;2.00;99.90
13251;DHT22;6692;50.710;7.180;2023-01-19T01:12:50;2.00;99.90
13251;DHT22;6692;50.710;7.180;2023-01-19T01:14:51;2.00;99.90
13251;DHT22;6692;50.710;7.180;2023-01-19T01:16:51;1.90;99.90
13251;DHT22;6692;50.710;7.180;2023-01-19T01:18:52;1.90;99.90
13251;DHT22;6692;50.710;7.180;2023-01-19T01:20:59;1.90;99.90
13251;DHT22;6692;50.710;7.180;2023-01-19T01:22:54;1.90;99.90
13251;DHT22;6692;50.710;7.180;2023-01-19T01:24:54;1.90;99.90
13251;DHT22;6692;50.710;7.180;2023-01-19T01:26:55;1.90;99.90
13251;DHT22;6692;50.710;7.180;2023-01-19T01:28:55;1.90;99.90
13251;DHT22;6692;50.710;7.180;2023-01-19T01:30:56;1.90;99.90
13251;DHT22;6692;50.710;7.180;2023-01-19T01:32:57;1.90;99.90
13251;DHT22;6692;50.710;7.180;2023-01-19T01:34:58;1.90;99.90
13251;DHT22;6692;50.710;7.180;2023-01-19T01:37:00;1.80;99.90
13251;DHT22;6692;50.710;7.180;2023-01-19T01:39:00;1.80;99.90
13251;DHT22;6692;50.710;7.180;2023-01-19T01:41:02;1.80;99.90
13251;DHT22;6692;50.710;7.180;2023-01-19T01:43:02;1.80;99.90
13251;DHT22;6692;50.710;7.180;2023-01-19T01:45:20;1.80;99.90
13251;DHT22;6692;50.710;7.180;2023-01-19T01:47:41;1.80;99.90
13251;DHT22;6692;50.710;7.180;2023-01-19T01:49:40;1.80;99.90
13251;DHT22;6692;50.710;7.180;2023-01-19T01:51:43;1.80;99.90
13251;DHT22;6692;50.710;7.180;2023-01-19T01:53:42;1.70;99.90
13251;DHT22;6692;50.710;7.180;2023-01-19T01:55:44;1.70;99.90
13251;DHT22;6692;50.710;7.180;2023-01-19T01:57:45;1.80;99.90
13251;DHT22;6692;50.710;7.180;2023-01-19T01:59:45;1.80;99.90
13251;DHT22;6692;50.710;7.180;2023-01-19T02:01:45;1.80;99.90
13251;DHT22;6692;50.710;7.180;2023-01-19T02:03:52;1.80;99.90
13251;DHT22;6692;50.710;7.180;2023-01-19T02:05:54;1.80;99.90
13251;DHT22;6692;50.710;7.180;2023-01-19T02:08:00;1.70;99.90
13251;DHT22;6692;50.710;7.180;2023-01-19T02:10:05;1.70;99.90
13251;DHT22;6692;50.710;7.180;2023-01-19T02:12:12;1.70;99.90
13251;DHT22;6692;50.710;7.180;2023-01-19T02:14:18;1.70;99.90
13251;DHT22;6692;50.710;7.180;2023-01-19T02:16:19;1.70;99.90
13251;DHT22;6692;50.710;7.180;2023-01-19T02:18:20;1.70;99.90
13251;DHT22;6692;50.710;7.180;2023-01-19T02:20:21;1.70;99.90
13251;DHT22;6692;50.710;7.180;2023-01-19T02:22:25;1.70;99.90
13251;DHT22;6692;50.710;7.180;2023-01-19T02:24:24;1.70;99.90
13251;DHT22;6692;50.710;7.180;2023-01-19T02:26:26;1.70;99.90
13251;DHT22;6692;50.710;7.180;2023-01-19T02:28:26;1.70;99.90
13251;DHT22;6692;50.710;7.180;2023-01-19T02:30:26;1.70;99.90
13251;DHT22;6692;50.710;7.180;2023-01-19T02:32:28;1.70;99.90
13251;DHT22;6692;50.710;7.180;2023-01-19T02:34:28;1.70;99.90
13251;DHT22;6692;50.710;7.180;2023-01-19T02:36:31;1.70;99.90
13251;DHT22;6692;50.710;7.180;2023-01-19T02:38:30;1.70;99.90
13251;DHT22;6692;50.710;7.180;2023-01-19T02:40:30;1.70;99.90
13251;DHT22;6692;50.710;7.180;2023-01-19T02:42:33;1.70;99.90
13251;DHT22;6692;50.710;7.180;2023-01-19T02:44:32;1.70;99.90
13251;DHT22;6692;50.710;7.180;2023-01-19T02:46:32;1.70;99.90
13251;DHT22;6692;50.710;7.180;2023-01-19T02:48:34;1.70;99.90
13251;DHT22;6692;50.710;7.180;2023-01-19T02:50:39;1.70;99.90
13251;DHT22;6692;50.710;7.180;2023-01-19T02:52:38;1.80;99.90
13251;DHT22;6692;50.710;7.180;2023-01-19T02:55:00;1.90;99.90
13251;DHT22;6692;50.710;7.180;2023-01-19T02:57:34;1.90;99.90
13251;DHT22;6692;50.710;7.180;2023-01-19T02:59:38;1.90;99.90
13251;DHT22;6692;50.710;7.180;2023-01-19T03:01:45;1.90;99.90
13251;DHT22;6692;50.710;7.180;2023-01-19T03:03:46;2.00;99.90
13251;DHT22;6692;50.710;7.180;2023-01-19T03:05:52;2.00;99.90
13251;DHT22;6692;50.710;7.180;2023-01-19T03:08:06;2.10;99.90
13251;DHT22;6692;50.710;7.180;2023-01-19T03:10:29;2.10;99.90
13251;DHT22;6692;50.710;7.180;2023-01-19T03:12:33;2.10;99.90
13251;DHT22;6692;50.710;7.180;2023-01-19T03:14:30;2.20;99.90
13251;DHT22;6692;50.710;7.180;2023-01-19T03:16:44;2.20;99.90
13251;DHT22;6692;50.710;7.180;2023-01-19T03:18:44;2.20;99.90
13251;DHT22;6692;50.710;7.180;2023-01-19T03:20:44;2.20;99.90
13251;DHT22;6692;50.710;7.180;2023-01-19T03:22:44;2.20;99.90
13251;DHT22;6692;50.710;7.180;2023-01-19T03:24:45;2.10;99.90
13251;DHT22;6692;50.710;7.180;2023-01-19T03:26:48;2.10;99.90
13251;DHT22;6692;50.710;7.180;2023-01-19T03:28:48;2.10;99.90
13251;DHT22;6692;50.710;7.180;2023-01-19T03:30:52;2.10;99.90
13251;DHT22;6692;50.710;7.180;2023-01-19T03:32:53;2.10;99.90
13251;DHT22;6692;50.710;7.180;2023-01-19T03:34:52;2.10;99.90
13251;DHT22;6692;50.710;7.180;2023-01-19T03:36:54;2.00;99.90
13251;DHT22;6692;50.710;7.180;2023-01-19T03:38:54;2.00;99.90
13251;DHT22;6692;50.710;7.180;2023-01-19T03:40:55;2.00;99.90
13251;DHT22;6692;50.710;7.180;2023-01-19T03:42:57;1.90;99.90
13251;DHT22;6692;50.710;7.180;2023-01-19T03:44:57;1.90;99.90
13251;DHT22;6692;50.710;7.180;2023-01-19T03:46:58;1.80;99.90
13251;DHT22;6692;50.710;7.180;2023-01-19T03:48:58;1.80;99.90
13251;DHT22;6692;50.710;7.180;2023-01-19T03:51:02;1.80;99.90
13251;DHT22;6692;50.710;7.180;2023-01-19T03:53:07;1.80;99.90
13251;DHT22;6692;50.710;7.180;2023-01-19T03:55:07;1.80;99.90
13251;DHT22;6692;50.710;7.180;2023-01-19T03:57:08;1.70;99.90
13251;DHT22;6692;50.710;7.180;2023-01-19T03:59:08;1.70;99.90
13251;DHT22;6692;50.710;7.180;2023-01-19T04:01:09;1.70;99.90
13251;DHT22;6692;50.710;7.180;2023-01-19T04:03:11;1.70;99.90
13251;DHT22;6692;50.710;7.180;2023-01-19T04:05:10;1.70;99.90
13251;DHT22;6692;50.710;7.180;2023-01-19T04:07:11;1.70;99.90
13251;DHT22;6692;50.710;7.180;2023-01-19T04:09:12;1.70;99.90
13251;DHT22;6692;50.710;7.180;2023-01-19T04:11:13;1.70;99.90
13251;DHT22;6692;50.710;7.180;2023-01-19T04:13:14;1.60;99.90
13251;DHT22;6692;50.710;7.180;2023-01-19T04:15:15;1.70;99.90
13251;DHT22;6692;50.710;7.180;2023-01-19T04:17:16;1.70;99.90
13251;DHT22;6692;50.710;7.180;2023-01-19T04:19:17;1.70;99.90
13251;DHT22;6692;50.710;7.180;2023-01-19T04:21:17;1.70;99.90
13251;DHT22;6692;50.710;7.180;2023-01-19T04:23:19;1.90;99.90
13251;DHT22;6692;50.710;7.180;2023-01-19T04:25:19;1.80;99.90
13251;DHT22;6692;50.710;7.180;2023-01-19T04:27:20;1.90;99.90
13251;DHT22;6692;50.710;7.180;2023-01-19T04:29:21;1.90;99.90
13251;DHT22;6692;50.710;7.180;2023-01-19T04:31:22;2.00;99.90
13251;DHT22;6692;50.710;7.180;2023-01-19T04:33:23;2.00;99.90
13251;DHT22;6692;50.710;7.180;2023-01-19T04:35:24;2.10;99.90
13251;DHT22;6692;50.710;7.180;2023-01-19T04:37:24;2.20;99.90
13251;DHT22;6692;50.710;7.180;2023-01-19T04:39:25;2.30;99.90
13251;DHT22;6692;50.710;7.180;2023-01-19T04:41:26;2.40;99.90
13251;DHT22;6692;50.710;7.180;2023-01-19T04:43:26;2.50;99.90
13251;DHT22;6692;50.710;7.180;2023-01-19T04:45:27;2.60;99.90
13251;DHT22;6692;50.710;7.180;2023-01-19T04:47:28;2.60;99.90
13251;DHT22;6692;50.710;7.180;2023-01-19T04:49:28;2.70;99.90
13251;DHT22;6692;50.710;7.180;2023-01-19T04:51:29;2.70;99.90
13251;DHT22;6692;50.710;7.180;2023-01-19T04:53:30;2.80;99.90
13251;DHT22;6692;50.710;7.180;2023-01-19T04:55:30;2.80;99.90
13251;DHT22;6692;50.710;7.180;2023-01-19T04:57:31;2.90;99.90
13251;DHT22;6692;50.710;7.180;2023-01-19T04:59:32;2.90;99.90
13251;DHT22;6692;50.710;7.180;2023-01-19T05:01:32;2.90;99.90
13251;DHT22;6692;50.710;7.180;2023-01-19T05:03:34;2.90;99.90
13251;DHT22;6692;50.710;7.180;2023-01-19T05:05:34;2.90;99.90
13251;DHT22;6692;50.710;7.180;2023-01-19T05:07:36;3.00;99.90
13251;DHT22;6692;50.710;7.180;2023-01-19T05:09:36;2.90;99.90
13251;DHT22;6692;50.710;7.180;2023-01-19T05:11:37;3.00;99.90
13251;DHT22;6692;50.710;7.180;2023-01-19T05:13:38;3.00;99.90
13251;DHT22;6692;50.710;7.180;2023-01-19T05:15:39;3.00;99.90
13251;DHT22;6692;50.710;7.180;2023-01-19T05:17:40;3.00;99.90
13251;DHT22;6692;50.710;7.180;2023-01-19T05:19:41;3.00;99.90
13251;DHT22;6692;50.710;7.180;2023-01-19T05:21:42;3.00;99.90
13251;DHT22;6692;50.710;7.180;2023-01-19T05:23:43;3.00;99.90
13251;DHT22;6692;50.710;7.180;2023-01-19T05:25:44;3.00;99.90
13251;DHT22;6692;50.710;7.180;2023-01-19T05:27:45;3.00;99.90
13251;DHT22;6692;50.710;7.180;2023-01-19T05:29:46;3.00;99.90
13251;DHT22;6692;50.710;7.180;2023-01-19T05:31:47;3.00;99.90
13251;DHT22;6692;50.710;7.180;2023-01-19T05:33:47;3.00;99.90
13251;DHT22;6692;50.710;7.180;2023-01-19T05:35:49;3.00;99.90
13251;DHT22;6692;50.710;7.180;2023-01-19T05:37:49;2.90;99.90
13251;DHT22;6692;50.710;7.180;2023-01-19T05:39:51;3.00;99.90
13251;DHT22;6692;50.710;7.180;2023-01-19T05:41:52;3.00;99.90
13251;DHT22;6692;50.710;7.180;2023-01-19T05:43:52;3.00;99.90
13251;DHT22;6692;50.710;7.180;2023-01-19T05:45:53;3.00;99.90
13251;DHT22;6692;50.710;7.180;2023-01-19T05:47:54;3.00;99.90
13251;DHT22;6692;50.710;7.180;2023-01-19T05:49:55;3.10;99.90
13251;DHT22;6692;50.710;7.180;2023-01-19T05:51:56;3.00;99.90
13251;DHT22;6692;50.710;7.180;2023-01-19T05:53:57;3.10;99.90
13251;DHT22;6692;50.710;7.180;2023-01-19T05:56:01;3.10;99.90
13251;DHT22;6692;50.710;7.180;2023-01-19T05:58:01;3.10;99.90
13251;DHT22;6692;50.710;7.180;2023-01-19T06:00:03;3.10;99.90
13251;DHT22;6692;50.710;7.180;2023-01-19T06:02:04;3.20;99.90
13251;DHT22;6692;50.710;7.180;2023-01-19T06:04:04;3.20;99.90
13251;DHT22;6692;50.710;7.180;2023-01-19T06:06:05;3.30;99.90
13251;DHT22;6692;50.710;7.180;2023-01-19T06:08:06;3.30;99.90
13251;DHT22;6692;50.710;7.180;2023-01-19T06:10:07;3.30;99.90
13251;DHT22;6692;50.710;7.180;2023-01-19T06:12:08;3.30;99.90
13251;DHT22;6692;50.710;7.180;2023-01-19T06:14:09;3.40;99.90
13251;DHT22;6692;50.710;7.180;2023-01-19T06:16:10;3.40;99.90
13251;DHT22;6692;50.710;7.180;2023-01-19T06:18:11;3.40;99.90
13251;DHT22;6692;50.710;7.180;2023-01-19T06:20:12;3.40;99.90
13251;DHT22;6692;50.710;7.180;2023-01-19T06:22:13;3.40;99.90
13251;DHT22;6692;50.710;7.180;2023-01-19T06:24:14;3.40;99.90
13251;DHT22;6692;50.710;7.180;2023-01-19T06:26:14;3.40;99.90
13251;DHT22;6692;50.710;7.180;2023-01-19T06:28:15;3.30;99.90
13251;DHT22;6692;50.710;7.180;2023-01-19T06:30:17;3.20;99.90
13251;DHT22;6692;50.710;7.180;2023-01-19T06:32:17;3.20;99.90
13251;DHT22;6692;50.710;7.180;2023-01-19T06:34:18;3.20;99.90
13251;DHT22;6692;50.710;7.180;2023-01-19T06:36:19;3.10;99.90
13251;DHT22;6692;50.710;7.180;2023-01-19T06:38:20;3.10;99.90
13251;DHT22;6692;50.710;7.180;2023-01-19T06:40:20;3.00;99.90
13251;DHT22;6692;50.710;7.180;2023-01-19T06:42:21;2.90;99.90
13251;DHT22;6692;50.710;7.180;2023-01-19T06:44:22;2.80;99.90
13251;DHT22;6692;50.710;7.180;2023-01-19T06:46:23;2.80;99.90
13251;DHT22;6692;50.710;7.180;2023-01-19T06:48:24;2.80;99.90
13251;DHT22;6692;50.710;7.180;2023-01-19T06:50:24;2.80;99.90
13251;DHT22;6692;50.710;7.180;2023-01-19T06:52:25;2.70;99.90
13251;DHT22;6692;50.710;7.180;2023-01-19T06:54:26;2.70;99.90
13251;DHT22;6692;50.710;7.180;2023-01-19T06:56:27;2.60;99.90
13251;DHT22;6692;50.710;7.180;2023-01-19T06:58:28;2.60;99.90
13251;DHT22;6692;50.710;7.180;2023-01-19T07:00:28;2.50;99.90
13251;DHT22;6692;50.710;7.180;2023-01-19T07:02:29;2.50;99.90
13251;DHT22;6692;50.710;7.180;2023-01-19T07:04:30;2.40;99.90
13251;DHT22;6692;50.710;7.180;2023-01-19T07:06:30;2.40;99.90
13251;DHT22;6692;50.710;7.180;2023-01-19T07:08:32;2.40;99.90
13251;DHT22;6692;50.710;7.180;2023-01-19T07:10:32;2.30;99.90
13251;DHT22;6692;50.710;7.180;2023-01-19T07:12:33;2.30;99.90
13251;DHT22;6692;50.710;7.180;2023-01-19T07:14:33;2.20;99.90
13251;DHT22;6692;50.710;7.180;2023-01-19T07:16:34;2.20;99.90
13251;DHT22;6692;50.710;7.180;2023-01-19T07:18:36;2.20;99.90
13251;DHT22;6692;50.710;7.180;2023-01-19T07:20:36;2.10;99.90
13251;DHT22;6692;50.710;7.180;2023-01-19T07:22:37;2.10;99.90
13251;DHT22;6692;50.710;7.180;2023-01-19T07:24:38;2.10;99.90
13251;DHT22;6692;50.710;7.180;2023-01-19T07:26:39;2.10;99.90
13251;DHT22;6692;50.710;7.180;2023-01-19T07:28:39;2.10;99.90
13251;DHT22;6692;50.710;7.180;2023-01-19T07:30:41;2.10;99.90
13251;DHT22;6692;50.710;7.180;2023-01-19T07:32:42;2.10;99.90
13251;DHT22;6692;50.710;7.180;2023-01-19T07:34:42;2.10;99.90
13251;DHT22;6692;50.710;7.180;2023-01-19T07:36:44;2.10;99.90
13251;DHT22;6692;50.710;7.180;2023-01-19T07:38:44;2.10;99.90
13251;DHT22;6692;50.710;7.180;2023-01-19T07:40:45;2.10;99.90
13251;DHT22;6692;50.710;7.180;2023-01-19T07:42:47;2.10;99.90
13251;DHT22;6692;50.710;7.180;2023-01-19T07:44:47;2.10;99.90
13251;DHT22;6692;50.710;7.180;2023-01-19T07:46:49;2.10;99.90
13251;DHT22;6692;50.710;7.180;2023-01-19T07:48:49;2.10;99.90
13251;DHT22;6692;50.710;7.180;2023-01-19T07:50:51;2.10;99.90
13251;DHT22;6692;50.710;7.180;2023-01-19T07:52:54;2.10;99.90
13251;DHT22;6692;50.710;7.180;2023-01-19T07:54:54;2.10;99.90
13251;DHT22;6692;50.710;7.180;2023-01-19T07:56:55;2.00;99.90
13251;DHT22;6692;50.710;7.180;2023-01-19T07:58:55;2.10;99.90
13251;DHT22;6692;50.710;7.180;2023-01-19T08:00:56;2.10;99.90
13251;DHT22;6692;50.710;7.180;2023-01-19T08:02:59;2.10;99.90
13251;DHT22;6692;50.710;7.180;2023-01-19T08:04:59;2.10;99.90
13251;DHT22;6692;50.710;7.180;2023-01-19T08:07:01;2.10;99.90
13251;DHT22;6692;50.710;7.180;2023-01-19T08:09:02;2.10;99.90
13251;DHT22;6692;50.710;7.180;2023-01-19T08:11:03;2.10;99.90
13251;DHT22;6692;50.710;7.180;2023-01-19T08:13:05;2.10;99.90
13251;DHT22;6692;50.710;7.180;2023-01-19T08:15:06;2.10;99.90
13251;DHT22;6692;50.710;7.180;2023-01-19T08:17:09;2.10;99.90
13251;DHT22;6692;50.710;7.180;2023-01-19T08:19:09;2.10;99.90
13251;DHT22;6692;50.710;7.180;2023-01-19T08:21:09;2.10;99.90
13251;DHT22;6692;50.710;7.180;2023-01-19T08:23:11;2.10;99.90
13251;DHT22;6692;50.710;7.180;2023-01-19T08:25:12;2.10;99.90
13251;DHT22;6692;50.710;7.180;2023-01-19T08:27:12;2.10;99.90
13251;DHT22;6692;50.710;7.180;2023-01-19T08:29:13;2.20;99.90
13251;DHT22;6692;50.710;7.180;2023-01-19T08:31:14;2.20;99.90
13251;DHT22;6692;50.710;7.180;2023-01-19T08:33:15;2.20;99.90
13251;DHT22;6692;50.710;7.180;2023-01-19T08:35:16;2.20;99.90
13251;DHT22;6692;50.710;7.180;2023-01-19T08:37:17;2.30;99.90
13251;DHT22;6692;50.710;7.180;2023-01-19T08:39:18;2.30;99.90
13251;DHT22;6692;50.710;7.180;2023-01-19T08:41:19;2.30;99.90
13251;DHT22;6692;50.710;7.180;2023-01-19T08:43:19;2.30;99.90
13251;DHT22;6692;50.710;7.180;2023-01-19T08:45:20;2.40;99.90
13251;DHT22;6692;50.710;7.180;2023-01-19T08:47:21;2.30;99.90
13251;DHT22;6692;50.710;7.180;2023-01-19T08:49:22;2.40;99.90
13251;DHT22;6692;50.710;7.180;2023-01-19T08:51:23;2.40;99.90
13251;DHT22;6692;50.710;7.180;2023-01-19T08:53:23;2.50;99.90
13251;DHT22;6692;50.710;7.180;2023-01-19T08:55:24;2.50;99.90
13251;DHT22;6692;50.710;7.180;2023-01-19T08:57:25;2.50;99.90
13251;DHT22;6692;50.710;7.180;2023-01-19T08:59:25;2.50;99.90
13251;DHT22;6692;50.710;7.180;2023-01-19T09:01:26;2.50;99.90
13251;DHT22;6692;50.710;7.180;2023-01-19T09:03:27;2.50;99.90
13251;DHT22;6692;50.710;7.180;2023-01-19T09:05:30;2.50;99.90
13251;DHT22;6692;50.710;7.180;2023-01-19T09:07:29;2.50;99.90
13251;DHT22;6692;50.710;7.180;2023-01-19T09:09:30;2.60;99.90
13251;DHT22;6692;50.710;7.180;2023-01-19T09:11:31;2.60;99.90
13251;DHT22;6692;50.710;7.180;2023-01-19T09:13:32;2.60;99.90
13251;DHT22;6692;50.710;7.180;2023-01-19T09:15:33;2.60;99.90
13251;DHT22;6692;50.710;7.180;2023-01-19T09:17:34;2.70;99.90
13251;DHT22;6692;50.710;7.180;2023-01-19T09:19:34;2.70;99.90
13251;DHT22;6692;50.710;7.180;2023-01-19T09:21:35;2.80;99.90
13251;DHT22;6692;50.710;7.180;2023-01-19T09:23:36;2.80;99.90
13251;DHT22;6692;50.710;7.180;2023-01-19T09:25:37;2.80;99.90
13251;DHT22;6692;50.710;7.180;2023-01-19T09:27:37;2.90;99.90
13251;DHT22;6692;50.710;7.180;2023-01-19T09:29:38;2.90;99.90
13251;DHT22;6692;50.710;7.180;2023-01-19T09:31:38;3.00;99.90
13251;DHT22;6692;50.710;7.180;2023-01-19T09:33:39;3.00;99.90
13251;DHT22;6692;50.710;7.180;2023-01-19T09:35:40;3.00;99.90
13251;DHT22;6692;50.710;7.180;2023-01-19T09:37:44;3.00;99.90
13251;DHT22;6692;50.710;7.180;2023-01-19T09:39:41;3.00;99.90
13251;DHT22;6692;50.710;7.180;2023-01-19T09:41:43;3.00;99.90
13251;DHT22;6692;50.710;7.180;2023-01-19T09:43:44;3.00;99.90
13251;DHT22;6692;50.710;7.180;2023-01-19T09:45:49;3.10;99.90
13251;DHT22;6692;50.710;7.180;2023-01-19T09:47:49;3.10;99.90
13251;DHT22;6692;50.710;7.180;2023-01-19T09:49:54;3.10;99.90
13251;DHT22;6692;50.710;7.180;2023-01-19T09:51:53;3.10;99.90
13251;DHT22;6692;50.710;7.180;2023-01-19T09:54:02;3.10;99.90
13251;DHT22;6692;50.710;7.180;2023-01-19T09:56:07;3.10;99.90
13251;DHT22;6692;50.710;7.180;2023-01-19T09:58:09;3.10;99.90
13251;DHT22;6692;50.710;7.180;2023-01-19T10:00:15;3.10;99.90
13251;DHT22;6692;50.710;7.180;2023-01-19T10:02:24;3.10;99.90
13251;DHT22;6692;50.710;7.180;2023-01-19T10:04:27;3.10;99.90
13251;DHT22;6692;50.710;7.180;2023-01-19T10:06:26;3.10;99.90
13251;DHT22;6692;50.710;7.180;2023-01-19T10:08:54;3.10;99.90
13251;DHT22;6692;50.710;7.180;2023-01-19T10:10:52;3.10;99.90
13251;DHT22;6692;50.710;7.180;2023-01-19T10:13:17;3.10;99.90
13251;DHT22;6692;50.710;7.180;2023-01-19T10:15:25;3.20;99.90
13251;DHT22;6692;50.710;7.180;2023-01-19T10:17:32;3.20;99.90
13251;DHT22;6692;50.710;7.180;2023-01-19T10:19:29;3.20;99.90
13251;DHT22;6692;50.710;7.180;2023-01-19T10:21:34;3.20;99.90
13251;DHT22;6692;50.710;7.180;2023-01-19T10:23:40;3.10;99.90
13251;DHT22;6692;50.710;7.180;2023-01-19T10:25:39;3.10;99.90
13251;DHT22;6692;50.710;7.180;2023-01-19T10:27:40;3.10;99.90
13251;DHT22;6692;50.710;7.180;2023-01-19T10:29:41;3.20;99.90
13251;DHT22;6692;50.710;7.180;2023-01-19T10:31:41;3.20;99.90
13251;DHT22;6692;50.710;7.180;2023-01-19T10:33:43;3.20;99.90
13251;DHT22;6692;50.710;7.180;2023-01-19T10:35:43;3.20;99.90
13251;DHT22;6692;50.710;7.180;2023-01-19T10:37:44;3.20;99.90
13251;DHT22;6692;50.710;7.180;2023-01-19T10:39:45;3.20;99.90
13251;DHT22;6692;50.710;7.180;2023-01-19T10:41:48;3.30;99.90
13251;DHT22;6692;50.710;7.180;2023-01-19T10:43:47;3.20;99.90
13251;DHT22;6692;50.710;7.180;2023-01-19T10:45:48;3.30;99.90
13251;DHT22;6692;50.710;7.180;2023-01-19T10:47:48;3.40;99.90
13251;DHT22;6692;50.710;7.180;2023-01-19T10:49:50;3.40;99.90
13251;DHT22;6692;50.710;7.180;2023-01-19T10:51:50;3.40;99.90
13251;DHT22;6692;50.710;7.180;2023-01-19T10:53:57;3.50;99.90
13251;DHT22;6692;50.710;7.180;2023-01-19T10:58:26;3.50;99.90
13251;DHT22;6692;50.710;7.180;2023-01-19T11:00:33;3.50;99.90
13251;DHT22;6692;50.710;7.180;2023-01-19T11:02:32;3.50;99.90
13251;DHT22;6692;50.710;7.180;2023-01-19T11:04:34;3.60;99.90
13251;DHT22;6692;50.710;7.180;2023-01-19T11:06:34;3.50;99.90
13251;DHT22;6692;50.710;7.180;2023-01-19T11:08:35;3.60;99.90
13251;DHT22;6692;50.710;7.180;2023-01-19T11:10:36;3.60;99.90
13251;DHT22;6692;50.710;7.180;2023-01-19T11:12:40;3.60;99.90
13251;DHT22;6692;50.710;7.180;2023-01-19T11:14:41;3.60;99.90
13251;DHT22;6692;50.710;7.180;2023-01-19T11:16:44;3.60;99.90
13251;DHT22;6692;50.710;7.180;2023-01-19T11:18:43;3.70;99.90
13251;DHT22;6692;50.710;7.180;2023-01-19T11:20:48;3.70;99.90
13251;DHT22;6692;50.710;7.180;2023-01-19T11:22:48;3.70;99.90
13251;DHT22;6692;50.710;7.180;2023-01-19T11:24:48;3.80;99.90
13251;DHT22;6692;50.710;7.180;2023-01-19T11:26:49;3.80;99.90
13251;DHT22;6692;50.710;7.180;2023-01-19T11:28:50;3.80;99.90
13251;DHT22;6692;50.710;7.180;2023-01-19T11:30:54;3.90;99.90
13251;DHT22;6692;50.710;7.180;2023-01-19T11:32:54;3.90;99.90
13251;DHT22;6692;50.710;7.180;2023-01-19T11:34:55;4.00;99.90
13251;DHT22;6692;50.710;7.180;2023-01-19T11:37:02;3.90;99.90
13251;DHT22;6692;50.710;7.180;2023-01-19T11:41:31;4.00;99.90
13251;DHT22;6692;50.710;7.180;2023-01-19T11:43:31;4.10;99.90
13251;DHT22;6692;50.710;7.180;2023-01-19T11:45:32;4.10;99.90
13251;DHT22;6692;50.710;7.180;2023-01-19T11:47:46;4.20;99.90
13251;DHT22;6692;50.710;7.180;2023-01-19T11:49:50;4.30;99.90
13251;DHT22;6692;50.710;7.180;2023-01-19T11:51:55;4.40;99.90
13251;DHT22;6692;50.710;7.180;2023-01-19T11:53:51;4.50;99.90
13251;DHT22;6692;50.710;7.180;2023-01-19T11:55:57;4.60;99.90
13251;DHT22;6692;50.710;7.180;2023-01-19T11:57:57;4.70;99.90
13251;DHT22;6692;50.710;7.180;2023-01-19T11:59:59;4.70;99.90
13251;DHT22;6692;50.710;7.180;2023-01-19T12:01:59;4.70;99.90
13251;DHT22;6692;50.710;7.180;2023-01-19T12:04:13;4.80;99.90
13251;DHT22;6692;50.710;7.180;2023-01-19T12:06:16;4.80;99.90
13251;DHT22;6692;50.710;7.180;2023-01-19T12:08:17;4.90;99.90
13251;DHT22;6692;50.710;7.180;2023-01-19T12:10:20;5.00;99.90
13251;DHT22;6692;50.710;7.180;2023-01-19T12:12:27;5.10;99.90
13251;DHT22;6692;50.710;7.180;2023-01-19T12:14:30;5.10;99.90
13251;DHT22;6692;50.710;7.180;2023-01-19T12:16:29;5.20;99.90
13251;DHT22;6692;50.710;7.180;2023-01-19T12:18:33;5.30;99.90
13251;DHT22;6692;50.710;7.180;2023-01-19T12:20:34;5.30;99.90
13251;DHT22;6692;50.710;7.180;2023-01-19T12:22:37;5.40;99.90
13251;DHT22;6692;50.710;7.180;2023-01-19T12:24:38;5.40;99.90
13251;DHT22;6692;50.710;7.180;2023-01-19T12:26:37;5.40;99.90
13251;DHT22;6692;50.710;7.180;2023-01-19T12:28:38;5.50;99.90
13251;DHT22;6692;50.710;7.180;2023-01-19T12:30:38;5.60;99.90
13251;DHT22;6692;50.710;7.180;2023-01-19T12:32:40;5.70;99.90
13251;DHT22;6692;50.710;7.180;2023-01-19T12:34:46;5.80;99.90
13251;DHT22;6692;50.710;7.180;2023-01-19T12:36:45;5.70;99.90
13251;DHT22;6692;50.710;7.180;2023-01-19T12:38:48;5.80;99.90
13251;DHT22;6692;50.710;7.180;2023-01-19T12:40:49;5.80;99.90
13251;DHT22;6692;50.710;7.180;2023-01-19T12:43:00;5.80;99.90
13251;DHT22;6692;50.710;7.180;2023-01-19T12:45:04;5.70;99.90
13251;DHT22;6692;50.710;7.180;2023-01-19T12:47:18;5.50;99.90
13251;DHT22;6692;50.710;7.180;2023-01-19T12:49:54;5.30;99.90
13251;DHT22;6692;50.710;7.180;2023-01-19T12:51:35;5.20;99.90
13251;DHT22;6692;50.710;7.180;2023-01-19T12:53:36;5.10;99.90
13251;DHT22;6692;50.710;7.180;2023-01-19T12:55:37;5.10;99.90
13251;DHT22;6692;50.710;7.180;2023-01-19T12:57:39;5.00;99.90
13251;DHT22;6692;50.710;7.180;2023-01-19T12:59:38;4.90;99.90
13251;DHT22;6692;50.710;7.180;2023-01-19T13:01:39;4.90;99.90
13251;DHT22;6692;50.710;7.180;2023-01-19T13:03:42;4.90;99.90
13251;DHT22;6692;50.710;7.180;2023-01-19T13:05:47;4.80;99.90
13251;DHT22;6692;50.710;7.180;2023-01-19T13:08:14;4.90;99.90
13251;DHT22;6692;50.710;7.180;2023-01-19T13:12:26;5.00;99.90
13251;DHT22;6692;50.710;7.180;2023-01-19T13:14:33;5.20;99.90
13251;DHT22;6692;50.710;7.180;2023-01-19T13:16:49;5.20;99.90
13251;DHT22;6692;50.710;7.180;2023-01-19T13:18:56;5.20;99.90
13251;DHT22;6692;50.710;7.180;2023-01-19T13:21:00;5.20;99.90
13251;DHT22;6692;50.710;7.180;2023-01-19T13:23:18;5.20;99.90